Linda Reed — WDE8222 — position and weather

sailwx.info

Track history (hours):
 
Tides and Currents Weather Stations Pressure Air Temp Water Temp Dewpoint Dewpoint Depression Visibility Wind Speed Wind Dir Waves Ship Positions

Linda Reed

Owner: Crounse Corporation, Maysville, KY. More information available from US FCC via Universal Licensing System and Coast Guard Vessel Documentation Center.

Last reported at 2015-Aug-27 18:04 UTC. Time now 2015-Sep-02 17:03 UTC.
Position N 38°46' W 083°54'.

Length 45 m.

Type: Tow > 200 m length. MMSI: 367402990.

Date/timePositionNaut miles runAvg speedWind from/ knotsBaromVisibWave heightAir tempDewpointWater temp
2015-Aug-27 18:04N 38°46' W 083°54'6 3.3
2015-Aug-27 16:14N 38°46' W 084°02'3 4.0
2015-Aug-27 15:33N 38°46' W 084°05'4 4.0
2015-Aug-27 14:30N 38°48' W 084°10'2 1.6
2015-Aug-27 13:33N 38°48' W 084°12'3 2.6
2015-Aug-27 12:33N 38°50' W 084°14'4 3.6
2015-Aug-27 11:33N 38°54' W 084°14'3 3.0
2015-Aug-27 10:33N 38°56' W 084°17'4 3.6
2015-Aug-27 09:33N 38°60' W 084°18'4 4.1
2015-Aug-27 08:33N 39°02' W 084°22'4 3.7
2015-Aug-27 07:32N 39°04' W 084°26'3 3.3
2015-Aug-27 06:34N 39°07' W 084°29'4 3.6
2015-Aug-27 05:33N 39°06' W 084°33'4 4.0
2015-Aug-27 04:33N 39°05' W 084°38'4 4.3
2015-Aug-27 03:34N 39°07' W 084°42'3 3.3
2015-Aug-27 02:33N 39°07' W 084°47'  
2015-Aug-24 04:33N 38°56' W 084°52'6 4.4
2015-Aug-24 03:07N 39°02' W 084°53'4 4.3
2015-Aug-24 02:12N 39°06' W 084°50'3 5.0
2015-Aug-24 01:33N 39°07' W 084°47'4 3.7
2015-Aug-24 00:32N 39°07' W 084°42'5 5.0
2015-Aug-23 23:33N 39°04' W 084°36'5 4.5
2015-Aug-23 22:33N 39°06' W 084°31'4 3.7
2015-Aug-23 21:33N 39°06' W 084°26'4 4.2
2015-Aug-23 20:33N 39°03' W 084°23'5 4.8
2015-Aug-23 19:33N 38°59' W 084°18'5 5.0
2015-Aug-23 18:33N 38°55' W 084°15'3 2.5
2015-Aug-23 17:33N 38°53' W 084°14'0 0.2
2015-Aug-23 16:29N 38°53' W 084°14'0 0.2
2015-Aug-23 15:31N 38°53' W 084°14'3 2.9
2015-Aug-23 14:31N 38°50' W 084°14'3 3.1
2015-Aug-23 13:26N 38°48' W 084°10'2 2.0
2015-Aug-23 12:33N 38°47' W 084°08'4 3.8
2015-Aug-23 11:33N 38°46' W 084°03'5 4.7
2015-Aug-23 10:32N 38°47' W 083°57'5 4.6
2015-Aug-23 09:30N 38°45' W 083°52'4 3.6
2015-Aug-23 08:32N 38°42' W 083°49'0 0.2
2015-Aug-23 07:32N 38°42' W 083°50'0 0.5
2015-Aug-23 06:32N 38°42' W 083°49'0 0.4
2015-Aug-23 05:32N 38°42' W 083°49'0 0.1
2015-Aug-23 04:27N 38°42' W 083°50'2 1.9
2015-Aug-23 03:31N 38°42' W 083°47'  
Track history (hours):
 
Tides and Currents Weather Stations Pressure Air Temp Water Temp Dewpoint Dewpoint Depression Visibility Wind Speed Wind Dir Waves Ship Positions

Linda Reed

Owner: Crounse Corporation, Maysville, KY. More information available from US FCC via Universal Licensing System and Coast Guard Vessel Documentation Center.

Last reported at 2015-Aug-27 18:04 UTC. Time now 2015-Sep-02 17:03 UTC.
Position N 38°46' W 083°54'.

Length 45 m.

Type: Tow > 200 m length. MMSI: 367402990.

Date/timePositionNaut miles runAvg speedWind from/ knotsBaromVisibWave heightAir tempDewpointWater temp
2015-Aug-27 18:04N 38°46' W 083°54'6 3.3
2015-Aug-27 16:14N 38°46' W 084°02'3 4.0
2015-Aug-27 15:33N 38°46' W 084°05'4 4.0
2015-Aug-27 14:30N 38°48' W 084°10'2 1.6
2015-Aug-27 13:33N 38°48' W 084°12'3 2.6
2015-Aug-27 12:33N 38°50' W 084°14'4 3.6
2015-Aug-27 11:33N 38°54' W 084°14'3 3.0
2015-Aug-27 10:33N 38°56' W 084°17'4 3.6
2015-Aug-27 09:33N 38°60' W 084°18'4 4.1
2015-Aug-27 08:33N 39°02' W 084°22'4 3.7
2015-Aug-27 07:32N 39°04' W 084°26'3 3.3
2015-Aug-27 06:34N 39°07' W 084°29'4 3.6
2015-Aug-27 05:33N 39°06' W 084°33'4 4.0
2015-Aug-27 04:33N 39°05' W 084°38'4 4.3
2015-Aug-27 03:34N 39°07' W 084°42'3 3.3
2015-Aug-27 02:33N 39°07' W 084°47'  
2015-Aug-24 04:33N 38°56' W 084°52'6 4.4
2015-Aug-24 03:07N 39°02' W 084°53'4 4.3
2015-Aug-24 02:12N 39°06' W 084°50'3 5.0
2015-Aug-24 01:33N 39°07' W 084°47'4 3.7
2015-Aug-24 00:32N 39°07' W 084°42'5 5.0
2015-Aug-23 23:33N 39°04' W 084°36'5 4.5
2015-Aug-23 22:33N 39°06' W 084°31'4 3.7
2015-Aug-23 21:33N 39°06' W 084°26'4 4.2
2015-Aug-23 20:33N 39°03' W 084°23'5 4.8
2015-Aug-23 19:33N 38°59' W 084°18'5 5.0
2015-Aug-23 18:33N 38°55' W 084°15'3 2.5
2015-Aug-23 17:33N 38°53' W 084°14'0 0.2
2015-Aug-23 16:29N 38°53' W 084°14'0 0.2
2015-Aug-23 15:31N 38°53' W 084°14'3 2.9
2015-Aug-23 14:31N 38°50' W 084°14'3 3.1
2015-Aug-23 13:26N 38°48' W 084°10'2 2.0
2015-Aug-23 12:33N 38°47' W 084°08'4 3.8
2015-Aug-23 11:33N 38°46' W 084°03'5 4.7
2015-Aug-23 10:32N 38°47' W 083°57'5 4.6
2015-Aug-23 09:30N 38°45' W 083°52'4 3.6
2015-Aug-23 08:32N 38°42' W 083°49'0 0.2
2015-Aug-23 07:32N 38°42' W 083°50'0 0.5
2015-Aug-23 06:32N 38°42' W 083°49'0 0.4
2015-Aug-23 05:32N 38°42' W 083°49'0 0.1
2015-Aug-23 04:27N 38°42' W 083°50'2 1.9
2015-Aug-23 03:31N 38°42' W 083°47'  

Dump ship's entire track history